createdAt,value
2022-09-23T00:00:19.028Z,0
2022-09-23T00:05:19.113Z,0
2022-09-23T00:15:20.058Z,0
2022-09-23T00:25:21.598Z,0
2022-09-23T00:30:19.101Z,0
2022-09-23T00:35:19.113Z,0
2022-09-23T00:40:19.146Z,0
2022-09-23T00:45:19.064Z,0
2022-09-23T00:50:19.151Z,0
2022-09-23T00:55:19.568Z,0
2022-09-23T01:00:19.065Z,0
2022-09-23T01:05:19.089Z,0
2022-09-23T01:10:19.090Z,0
2022-09-23T01:15:19.072Z,0
2022-09-23T01:20:19.102Z,0
2022-09-23T01:25:19.112Z,0
2022-09-23T01:30:19.072Z,0
2022-09-23T01:35:19.142Z,0
2022-09-23T01:40:19.195Z,0
2022-09-23T01:45:19.181Z,0
2022-09-23T01:50:19.154Z,0
2022-09-23T01:55:19.112Z,0
2022-09-23T02:00:19.304Z,0
2022-09-23T02:05:19.090Z,0
2022-09-23T02:10:19.137Z,0
2022-09-23T02:15:19.092Z,0
2022-09-23T02:20:19.574Z,0
2022-09-23T02:25:19.157Z,0
2022-09-23T02:30:19.084Z,0
2022-09-23T02:35:19.120Z,0
2022-09-23T02:40:21.168Z,0
2022-09-23T02:45:19.134Z,0
2022-09-23T02:50:19.164Z,0
2022-09-23T02:55:19.269Z,0
2022-09-23T03:00:19.162Z,0
2022-09-23T03:05:19.155Z,0
2022-09-23T03:10:19.114Z,0
2022-09-23T03:15:19.094Z,0
2022-09-23T03:20:19.639Z,0
2022-09-23T03:25:19.116Z,0
2022-09-23T03:30:19.118Z,0
2022-09-23T03:35:20.347Z,0
2022-09-23T03:40:19.175Z,0
2022-09-23T03:45:19.115Z,0
2022-09-23T03:50:20.284Z,0
2022-09-23T03:55:19.133Z,0
2022-09-23T04:00:19.122Z,0
2022-09-23T04:05:19.150Z,0
2022-09-23T04:10:19.359Z,0
2022-09-23T04:15:19.432Z,0
2022-09-23T04:20:19.230Z,0
2022-09-23T04:25:19.257Z,0
2022-09-23T04:30:19.344Z,0
2022-09-23T04:35:19.152Z,0
2022-09-23T04:40:19.223Z,0
2022-09-23T04:45:20.131Z,0
2022-09-23T04:51:45.682Z,0
2022-09-23T04:55:19.238Z,0
2022-09-23T05:00:19.120Z,0
2022-09-23T05:05:19.208Z,0
2022-09-23T05:10:19.258Z,265
2022-09-23T05:15:19.168Z,0
2022-09-23T05:20:19.274Z,0
2022-09-23T05:25:19.635Z,265
2022-09-23T05:30:19.439Z,267
2022-09-23T05:35:19.262Z,269
2022-09-23T05:40:19.360Z,270
2022-09-23T05:45:19.133Z,273
2022-09-23T05:50:19.197Z,272
2022-09-23T05:55:25.265Z,275
2022-09-23T06:00:19.100Z,275
2022-09-23T06:05:19.166Z,276
2022-09-23T06:10:19.146Z,279
2022-09-23T06:15:19.124Z,279
2022-09-23T06:20:19.215Z,281
2022-09-23T06:25:19.181Z,282
2022-09-23T06:30:19.137Z,285
2022-09-23T06:35:26.826Z,286
2022-09-23T06:40:19.287Z,284
2022-09-23T06:45:19.705Z,284
2022-09-23T06:50:19.209Z,286
2022-09-23T06:55:19.171Z,286
2022-09-23T07:00:19.163Z,289
2022-09-23T07:05:19.187Z,293
2022-09-23T07:10:19.191Z,297
2022-09-23T07:15:19.177Z,300
2022-09-23T07:20:19.188Z,301
2022-09-23T07:25:19.204Z,305
2022-09-23T07:30:24.906Z,312
2022-09-23T07:35:19.247Z,314
2022-09-23T07:40:20.218Z,317
2022-09-23T07:45:19.171Z,354
2022-09-23T07:50:19.500Z,1502
2022-09-23T07:55:22.237Z,1467
2022-09-23T08:00:19.201Z,1719
2022-09-23T08:05:19.202Z,1849
2022-09-23T08:10:19.232Z,829
2022-09-23T08:15:19.185Z,439
2022-09-23T08:20:19.221Z,453
2022-09-23T08:25:22.761Z,488
2022-09-23T08:30:19.176Z,1812
2022-09-23T08:35:19.215Z,1782
2022-09-23T08:40:19.473Z,1632
2022-09-23T08:45:19.217Z,1397
2022-09-23T08:50:20.015Z,1719
2022-09-23T08:55:19.200Z,1690
2022-09-23T09:00:19.186Z,1974
2022-09-23T09:05:19.200Z,1749
2022-09-23T09:10:19.196Z,1923
2022-09-23T09:15:19.186Z,1552
2022-09-23T09:20:19.342Z,1384
2022-09-23T09:25:19.267Z,1583
2022-09-23T09:30:19.271Z,1618
2022-09-23T09:35:19.201Z,1726
2022-09-23T09:40:19.326Z,1532
2022-09-23T09:45:22.846Z,1396
2022-09-23T09:50:19.210Z,1222
2022-09-23T09:55:19.201Z,559
2022-09-23T10:00:19.108Z,497
2022-09-23T10:05:19.190Z,515
2022-09-23T10:15:19.171Z,715
2022-09-23T10:20:19.188Z,437
2022-09-23T10:25:19.168Z,489
2022-09-23T10:30:19.120Z,484
2022-09-23T10:35:19.188Z,427
2022-09-23T10:40:19.282Z,443
2022-09-23T10:45:19.137Z,409
2022-09-23T10:50:19.291Z,405
2022-09-23T10:55:19.225Z,436
2022-09-23T11:00:19.167Z,525
2022-09-23T11:05:19.227Z,535
2022-09-23T11:10:44.776Z,672
2022-09-23T11:15:19.237Z,369
2022-09-23T11:20:19.206Z,359
2022-09-23T11:25:19.220Z,353
2022-09-23T11:30:19.147Z,366
2022-09-23T11:35:19.219Z,360
2022-09-23T11:40:19.283Z,360
2022-09-23T11:45:19.143Z,358
2022-09-23T11:50:19.240Z,358
2022-09-23T11:55:23.369Z,355
2022-09-23T12:00:19.257Z,352
2022-09-23T12:05:19.445Z,342
2022-09-23T12:10:19.251Z,337
2022-09-23T12:15:19.184Z,337
2022-09-23T12:20:19.302Z,343
2022-09-23T12:25:19.246Z,391
2022-09-23T12:30:19.327Z,349
2022-09-23T12:35:19.299Z,335
2022-09-23T12:40:19.230Z,326
2022-09-23T12:45:19.244Z,324
2022-09-23T12:50:52.847Z,322
2022-09-23T12:55:19.230Z,317
2022-09-23T13:00:19.195Z,313
2022-09-23T13:05:19.354Z,309
2022-09-23T13:10:19.310Z,310
2022-09-23T13:15:19.200Z,308
2022-09-23T13:20:19.361Z,307
2022-09-23T13:25:19.261Z,307
2022-09-23T13:30:25.210Z,305
2022-09-23T13:35:19.337Z,303
2022-09-23T13:40:19.398Z,300
2022-09-23T13:45:19.274Z,307
2022-09-23T13:50:19.277Z,296
2022-09-23T13:55:19.422Z,292
2022-09-23T14:00:19.222Z,290
2022-09-23T14:05:19.282Z,291
2022-09-23T14:10:19.325Z,289
2022-09-23T14:15:19.258Z,290
2022-09-23T14:20:19.288Z,286
2022-09-23T14:25:19.306Z,290
2022-09-23T14:30:19.300Z,288
2022-09-23T14:35:19.348Z,287
2022-09-23T14:40:19.399Z,288
2022-09-23T14:45:19.299Z,289
2022-09-23T14:50:19.404Z,290
2022-09-23T14:55:19.361Z,286
2022-09-23T15:00:19.322Z,285
2022-09-23T15:05:19.308Z,289
2022-09-23T15:10:19.592Z,286
2022-09-23T15:15:19.280Z,279
2022-09-23T15:20:19.330Z,278
2022-09-23T15:25:19.292Z,280
2022-09-23T15:30:19.386Z,274
2022-09-23T15:35:19.422Z,272
2022-09-23T15:40:19.489Z,273
2022-09-23T15:45:19.246Z,277
2022-09-23T15:50:19.396Z,279
2022-09-23T15:55:19.304Z,274
2022-09-23T16:00:19.294Z,274
2022-09-23T16:05:19.391Z,272
2022-09-23T16:10:19.411Z,270
2022-09-23T16:15:19.301Z,269
2022-09-23T16:20:19.406Z,271
2022-09-23T16:25:19.361Z,268
2022-09-23T16:30:19.417Z,268
2022-09-23T16:35:19.336Z,266
2022-09-23T16:40:19.386Z,265
2022-09-23T16:45:19.375Z,0
2022-09-23T16:50:19.492Z,265
2022-09-23T16:55:24.985Z,0
2022-09-23T17:00:19.381Z,0
2022-09-23T17:05:19.436Z,0
2022-09-23T17:10:19.369Z,0
2022-09-23T17:15:19.504Z,0
2022-09-23T17:20:19.366Z,0
2022-09-23T17:25:19.367Z,0
2022-09-23T17:30:19.461Z,0
2022-09-23T17:35:19.358Z,0
2022-09-23T17:40:19.389Z,0
2022-09-23T17:45:19.403Z,0
2022-09-23T17:50:19.428Z,0
2022-09-23T17:55:19.411Z,0
2022-09-23T18:00:19.314Z,0
2022-09-23T18:05:19.380Z,0
2022-09-23T18:10:19.385Z,0
2022-09-23T18:15:22.354Z,0
2022-09-23T18:20:19.341Z,0
2022-09-23T18:25:37.941Z,0
2022-09-23T18:30:19.349Z,0
2022-09-23T18:35:19.439Z,0
2022-09-23T18:40:19.467Z,0
2022-09-23T18:45:19.390Z,0
2022-09-23T18:50:19.446Z,0
2022-09-23T18:55:19.400Z,0
2022-09-23T19:00:19.364Z,0
2022-09-23T19:05:19.374Z,0
2022-09-23T19:10:19.464Z,0
2022-09-23T19:15:19.399Z,0
2022-09-23T19:20:19.412Z,0
2022-09-23T19:25:19.383Z,0
2022-09-23T19:30:19.409Z,0
2022-09-23T19:35:19.403Z,0
2022-09-23T19:40:19.450Z,0
2022-09-23T19:45:19.459Z,0
2022-09-23T19:50:19.514Z,0
2022-09-23T19:55:19.368Z,0
2022-09-23T20:00:19.471Z,0
2022-09-23T20:05:22.406Z,0
2022-09-23T20:10:19.410Z,0
2022-09-23T20:15:19.418Z,0
2022-09-23T20:20:19.391Z,0
2022-09-23T20:25:19.472Z,0
2022-09-23T20:30:19.457Z,0
2022-09-23T20:35:19.466Z,0
2022-09-23T20:40:19.442Z,0
2022-09-23T20:45:19.385Z,0
2022-09-23T20:50:19.427Z,0
2022-09-23T20:55:19.436Z,0
2022-09-23T21:00:19.341Z,0
2022-09-23T21:05:20.888Z,0
2022-09-23T21:10:19.490Z,0
2022-09-23T21:15:19.398Z,0
2022-09-23T21:20:19.417Z,0
2022-09-23T21:25:27.765Z,0
2022-09-23T21:30:21.157Z,0
2022-09-23T21:35:19.442Z,0
2022-09-23T21:40:19.519Z,0
2022-09-23T21:45:19.379Z,0
2022-09-23T21:50:19.671Z,0
2022-09-23T21:55:19.408Z,0
2022-09-23T22:00:19.403Z,0
2022-09-23T22:05:19.405Z,0
2022-09-23T22:10:19.519Z,0
2022-09-23T22:15:23.213Z,0
2022-09-23T22:20:19.465Z,0
2022-09-23T22:25:20.208Z,0
2022-09-23T22:30:19.484Z,0
2022-09-23T22:35:19.618Z,0
2022-09-23T22:40:19.484Z,0
2022-09-23T22:45:20.448Z,0
2022-09-23T22:50:19.470Z,0
2022-09-23T22:55:19.556Z,0
2022-09-23T23:00:19.458Z,0
2022-09-23T23:05:19.605Z,0
2022-09-23T23:10:19.506Z,0
2022-09-23T23:15:19.567Z,0
2022-09-23T23:20:19.450Z,0
2022-09-23T23:30:19.457Z,0
2022-09-23T23:35:19.741Z,0
2022-09-23T23:40:19.517Z,0
2022-09-23T23:45:32.087Z,0
2022-09-23T23:50:19.498Z,0
2022-09-23T23:55:19.515Z,0
